11 de agosto de 2022

Hora Código Clima Temp. Visibilidade Tecto Vento METAR/SPECI
1:00 da tarde
V
75 °F 9 mi - 230° 230° 10 - 16 kt METAR CYHU 111700Z AUTO 23010G16KT 9SM FEW039 SCT110 24/18 A2986 RMK SLP113 DENSITY ALT 1300FT
12:00 da tarde
V
73 °F 9 mi - 210° 210° 7 kt METAR CYHU 111600Z AUTO 21007KT 190V260 9SM SCT091 SCT120 23/18 A2987 RMK SLP118 DENSITY ALT 1200FT
11:00 da manhã
V
72 °F 9 mi - 240° 240° 6 kt METAR CYHU 111500Z AUTO 24006KT 220V280 9SM FEW071 SCT120 22/18 A2988 RMK SLP120 DENSITY ALT 1000FT
10:00 da manhã
V
72 °F 9 mi 11.000 ft 230° 230° 6 kt METAR CYHU 111400Z AUTO 23006KT 200V260 9SM BKN110 BKN130 22/17 A2987 RMK SLP118 DENSITY ALT 1000FT
9:00 da manhã
V
68 °F 9 mi 15.000 ft 220° 220° 9 kt METAR CYHU 111300Z AUTO 22009KT 9SM FEW017 BKN150 20/17 A2987 RMK SLP118 DENSITY ALT 800FT
8:00 da manhã
V
64 °F 9 mi 15.000 ft 180° 180° 5 kt METAR CYHU 111200Z AUTO 18005KT 9SM FEW130 BKN150 18/16 A2988 RMK SLP119 DENSITY ALT 600FT
7:00 da manhã
V
64 °F 9 mi 15.000 ft 210° 210° 4 kt METAR CYHU 111100Z AUTO 21004KT 9SM OVC150 18/16 A2987 RMK SLP118 DENSITY ALT 600FT
6:00 da manhã
V
63 °F 9 mi 15.000 ft 210° 210° 6 kt METAR CYHU 111000Z AUTO 21006KT 9SM BKN150 17/15 A2987 RMK SLP118 DENSITY ALT 400FT
5:00 da manhã
V
63 °F 9 mi - 210° 210° 7 kt METAR CYHU 110900Z AUTO 21007KT 9SM CLR 17/15 A2988 RMK SLP121 DENSITY ALT 400FT
4:00 da manhã
V
64 °F 9 mi - 210° 210° 8 kt METAR CYHU 110800Z AUTO 21008KT 9SM CLR 18/16 A2989 RMK SLP125 DENSITY ALT 500FT
3:00 da manhã
V
64 °F 9 mi - 210° 210° 5 kt METAR CYHU 110700Z AUTO 21005KT 9SM CLR 18/15 A2991 RMK SLP132 DENSITY ALT 500FT
2:00 da manhã
V
63 °F 9 mi - 200° 200° 4 kt METAR CYHU 110600Z AUTO 20004KT 9SM CLR 17/15 A2993 RMK SLP136 DENSITY ALT 400FT
1:00 da manhã
V
64 °F 9 mi - 200° 200° 6 kt METAR CYHU 110500Z AUTO 20006KT 9SM CLR 18/16 A2993 RMK SLP137 DENSITY ALT 500FT
12:00 da manhã
V
64 °F 9 mi - 200° 200° 3 kt METAR CYHU 110400Z AUTO 20003KT 9SM CLR 18/15 A2994 RMK SLP141 DENSITY ALT 500FT

10 de agosto de 2022

Hora Código Clima Temp. Visibilidade Tecto Vento METAR/SPECI
11:00 da tarde
V
66 °F 9 mi - 180° 180° 6 kt METAR CYHU 110300Z AUTO 18006KT 9SM CLR 19/16 A2995 RMK SLP145 DENSITY ALT 500FT
8:00 da manhã
V
64 °F 9 mi 5.000 ft Var 000° 0 kt METAR CYHU 101200Z AUTO 00000KT 9SM OVC050 18/16 A3010 RMK SLP193 DENSITY ALT 300FT
7:00 da manhã
V
63 °F 9 mi 4.800 ft Var 000° 0 kt METAR CYHU 101100Z AUTO 00000KT 9SM OVC048 17/16 A3008 RMK SLP189 DENSITY ALT 200FT
6:00 da manhã
V
63 °F 9 mi 5.000 ft Var 000° 0 kt METAR CYHU 101000Z AUTO 00000KT 9SM OVC050 17/16 A3007 RMK SLP185 DENSITY ALT 200FT
5:45 da manhã
V
63 °F 9 mi 5.000 ft Var 000° 0 kt METAR CYHU 100945Z AUTO 00000KT 9SM OVC050 17/16 A3007 RMK SLP184 DENSITY ALT 200FT
5:43 da manhã
M
63 °F 4 mi 5.000 ft Var 000° 0 kt METAR CYHU 100943Z AUTO 00000KT 4SM BR OVC050 17/15 A3007 RMK SLP184 DENSITY ALT 200FT
5:13 da manhã
I
63 °F 1½ mi 5.000 ft Var 000° 0 kt METAR CYHU 100913Z AUTO 00000KT 1 1/2SM BR OVC050 17/15 A3007 RMK SLP183 DENSITY ALT 200FT
5:00 da manhã
V
63 °F 9 mi 5.000 ft Var 000° 0 kt METAR CYHU 100900Z AUTO 00000KT 9SM OVC050 17/15 A3006 RMK SLP182 DENSITY ALT 200FT
4:00 da manhã
V
63 °F 9 mi 5.000 ft 020° 020° 2 kt METAR CYHU 100800Z AUTO 02002KT 9SM SCT028 OVC050 17/16 A3006 RMK SLP181 DENSITY ALT 200FT
3:00 da manhã
V
63 °F 9 mi 5.000 ft Var 000° 0 kt METAR CYHU 100700Z AUTO 00000KT 9SM FEW028 OVC050 17/15 A3006 RMK SLP180 DENSITY ALT 200FT
2:00 da manhã
V
63 °F 9 mi 5.000 ft Var 000° 0 kt METAR CYHU 100600Z AUTO 00000KT 9SM OVC050 17/15 A3005 RMK SLP178 DENSITY ALT 200FT
1:00 da manhã
V
63 °F 9 mi 5.000 ft Var 000° 0 kt METAR CYHU 100500Z AUTO 00000KT 9SM OVC050 17/15 A3005 RMK SLP178 DENSITY ALT 300FT
12:00 da manhã
V
63 °F 9 mi 3.100 ft Var 000° 0 kt METAR CYHU 100400Z AUTO 00000KT 9SM BKN031 OVC050 17/15 A3005 RMK SLP178 DENSITY ALT 200FT

9 de agosto de 2022

Hora Código Clima Temp. Visibilidade Tecto Vento METAR/SPECI
11:00 da tarde
V
63 °F 9 mi 5.000 ft 010° 010° 2 kt METAR CYHU 100300Z AUTO 01002KT 9SM SCT027 OVC050 17/15 A3005 RMK SLP178 DENSITY ALT 200FT
10:00 da tarde
V
63 °F 9 mi 5.500 ft 050° 050° 2 kt METAR CYHU 100200Z AUTO 05002KT 9SM FEW032 OVC055 17/15 A3005 RMK SLP178 DENSITY ALT 300FT
9:00 da tarde
V
63 °F 9 mi 3.000 ft 030° 030° 3 kt METAR CYHU 100100Z AUTO 03003KT 9SM OVC030 17/15 A3005 RMK SLP176 DENSITY ALT 300FT
8:57 da tarde
V
63 °F 7 mi 3.000 ft 030° 030° 3 kt METAR CYHU 100057Z AUTO 03003KT 7SM OVC030 17/15 A3005 RMK SLP176 DENSITY ALT 300FT
8:40 da tarde
I
63 °F 2¼ mi 2.800 ft 050° 050° 2 kt METAR CYHU 100040Z AUTO 05002KT 2 1/4SM BR OVC028 17/15 A3004 RMK SLP175 DENSITY ALT 300FT
8:24 da tarde
M
63 °F 5 mi 2.800 ft 040° 040° 3 kt METAR CYHU 100024Z AUTO 04003KT 5SM BR OVC028 17/15 A3004 RMK SLP174 DENSITY ALT 300FT
8:00 da tarde
M
63 °F 9 mi 2.800 ft 040° 040° 3 kt METAR CYHU 100000Z AUTO 04003KT 9SM OVC028 17/15 A3004 RMK SLP173 DENSITY ALT 300FT
7:00 da tarde
M
64 °F 9 mi 2.600 ft 020° 020° 8 kt METAR CYHU 092300Z AUTO 02008KT 9SM BKN026 OVC035 18/15 A3002 RMK SLP168 DENSITY ALT 400FT
6:00 da tarde
V
64 °F 9 mi 3.300 ft 040° 040° 5 kt METAR CYHU 092200Z AUTO 04005KT 9SM SCT024 OVC033 18/15 A3001 RMK SLP165 DENSITY ALT 400FT
5:28 da tarde
M
64 °F 9 mi 2.300 ft 020° 020° 7 kt METAR CYHU 092128Z AUTO 02007KT 9SM OVC023 18/15 A3001 RMK SLP164 DENSITY ALT 400FT
5:00 da tarde
M
66 °F 9 mi 2.700 ft 010° 010° 10 - 15 kt METAR CYHU 092100Z AUTO 01010G15KT 9SM OVC027 19/15 A3000 RMK SLP162 DENSITY ALT 500FT
4:20 da tarde
M
64 °F 9 mi 2.400 ft 360° 360° 9 kt METAR CYHU 092020Z AUTO 36009KT 9SM BKN024 BKN030 OVC034 18/15 A3001 RMK SLP163 DENSITY ALT 400FT
4:00 da tarde
V
66 °F 9 mi 3.400 ft 360° 360° 8 kt METAR CYHU 092000Z AUTO 36008KT 9SM FEW022 BKN034 OVC045 19/15 A3000 RMK SLP162 DENSITY ALT 500FT
3:52 da tarde
V
64 °F 9 mi 3.400 ft 360° 360° 7 kt METAR CYHU 091952Z AUTO 36007KT 9SM FEW019 SCT024 OVC034 18/15 A3000 RMK SLP162 DENSITY ALT 500FT
2:54 da tarde
M
64 °F 9 mi 2.300 ft 360° 360° 6 kt METAR CYHU 091854Z AUTO 36006KT 9SM SCT019 BKN023 BKN028 OVC033 18/15 A2999 RMK SLP157 DENSITY ALT 400FT
2:35 da tarde
V
64 °F 9 mi 3.100 ft 340° 340° 10 kt METAR CYHU 091835Z AUTO 34010KT 9SM FEW013 SCT021 OVC031 18/15 A2999 RMK SLP158 DENSITY ALT 400FT
2:00 da tarde
M
63 °F 9 mi 2.000 ft 360° 360° 10 kt METAR CYHU 091800Z AUTO 36010KT 9SM SCT014 OVC020 17/15 A2999 RMK SLP157 DENSITY ALT 300FT
1:21 da tarde
M
63 °F 9 mi 1.500 ft 360° 360° 7 kt METAR CYHU 091721Z AUTO 36007KT 9SM OVC015 17/15 A2998 RMK SLP154 DENSITY ALT 300FT
1:10 da tarde
M
61 °F 8 mi 1.500 ft 360° 360° 9 kt METAR CYHU 091710Z AUTO 36009KT 8SM -RA FEW010 OVC015 16/15 A2998 RMK SLP153 DENSITY ALT 300FT
1:00 da tarde
M
63 °F 9 mi 1.400 ft 040° 040° 10 kt METAR CYHU 091700Z AUTO 04010KT 330V060 9SM FEW010 BKN014 BKN019 OVC025 17/15 A2997 RMK SLP152 DENSITY ALT 400FT
12:38 da tarde
M
63 °F 7 mi 1.600 ft 360° 360° 8 kt METAR CYHU 091638Z AUTO 36008KT 7SM SCT010 BKN016 OVC023 17/15 A2996 RMK SLP149 DENSITY ALT 300FT
12:23 da tarde
M
61 °F 5 mi 1.300 ft 350° 350° 10 kt METAR CYHU 091623Z AUTO 35010KT 5SM BR BKN013 OVC020 16/15 A2996 RMK SLP148 DENSITY ALT 300FT
12:00 da tarde
M
63 °F 9 mi 1.300 ft 020° 020° 11 kt METAR CYHU 091600Z AUTO 02011KT 9SM OVC013 17/15 A2996 RMK SLP147 DENSITY ALT 300FT
11:00 da manhã
M
63 °F 9 mi 1.100 ft 360° 360° 9 kt METAR CYHU 091500Z AUTO 36009KT 350V060 9SM BKN011 OVC018 17/15 A2994 RMK SLP140 DENSITY ALT 300FT
10:51 da manhã
M
61 °F 9 mi 1.100 ft 030° 030° 8 kt METAR CYHU 091451Z AUTO 03008KT 9SM BKN011 OVC018 16/15 A2994 RMK SLP139 DENSITY ALT 300FT
Dados mais antigos

Nós e terceiros acompanhamos seu comportamento na internet em nosso site com cookies. Se você continuar, nós assumimos que você concorda com nossa política de cookies. Saiba mais